sensor_id;sensor_type;location;lat;lon;timestamp;temperature;humidity
51765;DHT22;37835;53.256;6.456;2023-04-24T00:02:23;11.10;99.90
51765;DHT22;37835;53.256;6.456;2023-04-24T00:04:49;11.10;99.90
51765;DHT22;37835;53.256;6.456;2023-04-24T00:07:15;11.10;99.90
51765;DHT22;37835;53.256;6.456;2023-04-24T00:09:42;11.10;99.90
51765;DHT22;37835;53.256;6.456;2023-04-24T00:12:10;11.10;99.90
51765;DHT22;37835;53.256;6.456;2023-04-24T00:14:36;11.10;99.90
51765;DHT22;37835;53.256;6.456;2023-04-24T00:17:01;11.10;99.90
51765;DHT22;37835;53.256;6.456;2023-04-24T00:19:28;11.10;99.90
51765;DHT22;37835;53.256;6.456;2023-04-24T00:21:54;11.00;99.90
51765;DHT22;37835;53.256;6.456;2023-04-24T00:24:20;11.00;99.90
51765;DHT22;37835;53.256;6.456;2023-04-24T00:26:46;11.00;99.90
51765;DHT22;37835;53.256;6.456;2023-04-24T00:29:12;11.00;99.90
51765;DHT22;37835;53.256;6.456;2023-04-24T00:31:37;11.00;99.90
51765;DHT22;37835;53.256;6.456;2023-04-24T00:34:04;10.90;99.90
51765;DHT22;37835;53.256;6.456;2023-04-24T00:36:30;10.90;99.90
51765;DHT22;37835;53.256;6.456;2023-04-24T00:38:56;11.00;99.90
51765;DHT22;37835;53.256;6.456;2023-04-24T00:41:22;10.90;99.90
51765;DHT22;37835;53.256;6.456;2023-04-24T00:43:49;10.90;99.90
51765;DHT22;37835;53.256;6.456;2023-04-24T00:46:15;10.90;99.90
51765;DHT22;37835;53.256;6.456;2023-04-24T00:48:41;10.00;99.90
51765;DHT22;37835;53.256;6.456;2023-04-24T00:51:07;10.90;99.90
51765;DHT22;37835;53.256;6.456;2023-04-24T00:53:33;10.90;99.90
51765;DHT22;37835;53.256;6.456;2023-04-24T00:55:58;10.90;99.90
51765;DHT22;37835;53.256;6.456;2023-04-24T00:58:25;10.80;99.90
51765;DHT22;37835;53.256;6.456;2023-04-24T01:00:52;10.80;99.90
51765;DHT22;37835;53.256;6.456;2023-04-24T01:03:20;10.80;99.90
51765;DHT22;37835;53.256;6.456;2023-04-24T01:05:47;10.80;99.90
51765;DHT22;37835;53.256;6.456;2023-04-24T01:08:13;10.70;99.90
51765;DHT22;37835;53.256;6.456;2023-04-24T01:10:41;10.70;99.90
51765;DHT22;37835;53.256;6.456;2023-04-24T01:13:08;10.70;99.90
51765;DHT22;37835;53.256;6.456;2023-04-24T01:15:34;10.60;99.90
51765;DHT22;37835;53.256;6.456;2023-04-24T01:18:00;10.60;99.90
51765;DHT22;37835;53.256;6.456;2023-04-24T01:20:25;10.60;99.90
51765;DHT22;37835;53.256;6.456;2023-04-24T01:22:52;10.50;99.90
51765;DHT22;37835;53.256;6.456;2023-04-24T01:25:18;10.50;99.90
51765;DHT22;37835;53.256;6.456;2023-04-24T01:27:44;10.50;99.90
51765;DHT22;37835;53.256;6.456;2023-04-24T01:30:10;10.50;99.90
51765;DHT22;37835;53.256;6.456;2023-04-24T01:32:37;10.40;99.90
51765;DHT22;37835;53.256;6.456;2023-04-24T01:35:03;10.40;99.90
51765;DHT22;37835;53.256;6.456;2023-04-24T01:37:29;10.40;99.90
51765;DHT22;37835;53.256;6.456;2023-04-24T01:39:54;10.30;99.90
51765;DHT22;37835;53.256;6.456;2023-04-24T01:42:20;10.30;99.90
51765;DHT22;37835;53.256;6.456;2023-04-24T01:44:47;10.30;99.90
51765;DHT22;37835;53.256;6.456;2023-04-24T01:47:12;10.30;99.90
51765;DHT22;37835;53.256;6.456;2023-04-24T01:49:39;10.20;99.90
51765;DHT22;37835;53.256;6.456;2023-04-24T01:52:06;10.20;99.90
51765;DHT22;37835;53.256;6.456;2023-04-24T01:54:31;10.20;99.90
51765;DHT22;37835;53.256;6.456;2023-04-24T01:56:57;10.20;99.90
51765;DHT22;37835;53.256;6.456;2023-04-24T01:59:23;10.20;99.90
51765;DHT22;37835;53.256;6.456;2023-04-24T02:01:50;10.20;99.90
51765;DHT22;37835;53.256;6.456;2023-04-24T02:04:16;10.20;99.90
51765;DHT22;37835;53.256;6.456;2023-04-24T02:06:41;10.10;99.90
51765;DHT22;37835;53.256;6.456;2023-04-24T02:09:07;10.10;99.90
51765;DHT22;37835;53.256;6.456;2023-04-24T02:11:33;10.10;99.90
51765;DHT22;37835;53.256;6.456;2023-04-24T02:13:58;10.10;99.90
51765;DHT22;37835;53.256;6.456;2023-04-24T02:16:24;10.10;99.90
51765;DHT22;37835;53.256;6.456;2023-04-24T02:18:50;10.10;99.90
51765;DHT22;37835;53.256;6.456;2023-04-24T02:21:15;11.30;99.90
51765;DHT22;37835;53.256;6.456;2023-04-24T02:23:41;10.00;99.90
51765;DHT22;37835;53.256;6.456;2023-04-24T02:26:07;10.00;99.90
51765;DHT22;37835;53.256;6.456;2023-04-24T02:28:32;10.00;99.90
51765;DHT22;37835;53.256;6.456;2023-04-24T02:30:58;10.00;99.90
51765;DHT22;37835;53.256;6.456;2023-04-24T02:33:24;10.00;99.90
51765;DHT22;37835;53.256;6.456;2023-04-24T02:35:49;10.00;99.90
51765;DHT22;37835;53.256;6.456;2023-04-24T02:38:15;10.00;99.90
51765;DHT22;37835;53.256;6.456;2023-04-24T02:40:40;10.00;99.90
51765;DHT22;37835;53.256;6.456;2023-04-24T02:43:06;10.00;99.90
51765;DHT22;37835;53.256;6.456;2023-04-24T02:45:31;10.00;99.90
51765;DHT22;37835;53.256;6.456;2023-04-24T02:47:59;10.00;99.90
51765;DHT22;37835;53.256;6.456;2023-04-24T02:50:25;10.00;99.90
51765;DHT22;37835;53.256;6.456;2023-04-24T02:52:51;10.00;99.90
51765;DHT22;37835;53.256;6.456;2023-04-24T02:55:16;10.00;99.90
51765;DHT22;37835;53.256;6.456;2023-04-24T02:57:42;10.00;99.90
51765;DHT22;37835;53.256;6.456;2023-04-24T03:00:08;10.00;99.90
51765;DHT22;37835;53.256;6.456;2023-04-24T03:02:34;10.00;99.90
51765;DHT22;37835;53.256;6.456;2023-04-24T03:05:00;10.00;99.90
51765;DHT22;37835;53.256;6.456;2023-04-24T03:07:25;10.00;99.90
51765;DHT22;37835;53.256;6.456;2023-04-24T03:09:51;10.00;99.90
51765;DHT22;37835;53.256;6.456;2023-04-24T03:12:16;10.00;99.90
51765;DHT22;37835;53.256;6.456;2023-04-24T03:14:43;10.00;99.90
51765;DHT22;37835;53.256;6.456;2023-04-24T03:17:09;10.10;99.90
51765;DHT22;37835;53.256;6.456;2023-04-24T03:19:34;10.00;99.90
51765;DHT22;37835;53.256;6.456;2023-04-24T03:22:02;10.10;99.90
51765;DHT22;37835;53.256;6.456;2023-04-24T03:24:27;10.10;99.90
51765;DHT22;37835;53.256;6.456;2023-04-24T03:26:53;10.00;99.90
51765;DHT22;37835;53.256;6.456;2023-04-24T03:29:19;10.00;99.90
51765;DHT22;37835;53.256;6.456;2023-04-24T03:31:45;10.10;99.90
51765;DHT22;37835;53.256;6.456;2023-04-24T03:34:10;10.10;99.90
51765;DHT22;37835;53.256;6.456;2023-04-24T03:36:36;10.10;99.90
51765;DHT22;37835;53.256;6.456;2023-04-24T03:39:01;10.10;99.90
51765;DHT22;37835;53.256;6.456;2023-04-24T03:41:27;10.10;99.90
51765;DHT22;37835;53.256;6.456;2023-04-24T03:43:53;10.10;99.90
51765;DHT22;37835;53.256;6.456;2023-04-24T03:46:18;10.10;99.90
51765;DHT22;37835;53.256;6.456;2023-04-24T03:48:44;10.10;99.90
51765;DHT22;37835;53.256;6.456;2023-04-24T03:51:09;10.10;99.90
51765;DHT22;37835;53.256;6.456;2023-04-24T03:53:35;10.10;99.90
51765;DHT22;37835;53.256;6.456;2023-04-24T03:56:00;10.10;99.90
51765;DHT22;37835;53.256;6.456;2023-04-24T03:58:26;10.10;99.90
51765;DHT22;37835;53.256;6.456;2023-04-24T04:00:52;10.10;99.90
51765;DHT22;37835;53.256;6.456;2023-04-24T04:03:17;10.10;99.90
51765;DHT22;37835;53.256;6.456;2023-04-24T04:05:43;10.10;99.90
51765;DHT22;37835;53.256;6.456;2023-04-24T04:08:08;10.10;99.90
51765;DHT22;37835;53.256;6.456;2023-04-24T04:10:34;10.20;99.90
51765;DHT22;37835;53.256;6.456;2023-04-24T04:12:59;10.20;99.90
51765;DHT22;37835;53.256;6.456;2023-04-24T04:15:25;10.20;99.90
51765;DHT22;37835;53.256;6.456;2023-04-24T04:17:51;10.20;99.90
51765;DHT22;37835;53.256;6.456;2023-04-24T04:20:16;10.20;99.90
51765;DHT22;37835;53.256;6.456;2023-04-24T04:22:42;10.20;99.90
51765;DHT22;37835;53.256;6.456;2023-04-24T04:25:08;10.20;99.90
51765;DHT22;37835;53.256;6.456;2023-04-24T04:27:34;10.20;99.90
51765;DHT22;37835;53.256;6.456;2023-04-24T04:30:00;10.20;99.90
51765;DHT22;37835;53.256;6.456;2023-04-24T04:32:33;10.20;99.90
51765;DHT22;37835;53.256;6.456;2023-04-24T04:35:00;10.20;99.90
51765;DHT22;37835;53.256;6.456;2023-04-24T04:37:32;10.20;99.90
51765;DHT22;37835;53.256;6.456;2023-04-24T04:40:02;10.20;99.90
51765;DHT22;37835;53.256;6.456;2023-04-24T04:42:32;10.20;99.90
51765;DHT22;37835;53.256;6.456;2023-04-24T04:44:59;10.20;99.90
51765;DHT22;37835;53.256;6.456;2023-04-24T04:47:25;10.20;99.90
51765;DHT22;37835;53.256;6.456;2023-04-24T04:49:51;10.10;99.90
51765;DHT22;37835;53.256;6.456;2023-04-24T04:52:18;10.10;99.90
51765;DHT22;37835;53.256;6.456;2023-04-24T04:54:43;10.10;99.90
51765;DHT22;37835;53.256;6.456;2023-04-24T04:57:10;10.10;99.90
51765;DHT22;37835;53.256;6.456;2023-04-24T04:59:36;10.10;99.90
51765;DHT22;37835;53.256;6.456;2023-04-24T05:02:02;10.10;99.90
51765;DHT22;37835;53.256;6.456;2023-04-24T05:04:28;10.00;99.90
51765;DHT22;37835;53.256;6.456;2023-04-24T05:06:53;10.10;99.90
51765;DHT22;37835;53.256;6.456;2023-04-24T05:09:19;10.10;99.90
51765;DHT22;37835;53.256;6.456;2023-04-24T05:11:45;10.00;99.90
51765;DHT22;37835;53.256;6.456;2023-04-24T05:14:10;10.00;99.90
51765;DHT22;37835;53.256;6.456;2023-04-24T05:16:38;10.00;99.90
51765;DHT22;37835;53.256;6.456;2023-04-24T05:19:03;10.00;99.90
51765;DHT22;37835;53.256;6.456;2023-04-24T05:21:29;9.90;99.90
51765;DHT22;37835;53.256;6.456;2023-04-24T05:23:54;9.90;99.90
51765;DHT22;37835;53.256;6.456;2023-04-24T05:26:20;9.90;99.90
51765;DHT22;37835;53.256;6.456;2023-04-24T05:28:46;9.90;99.90
51765;DHT22;37835;53.256;6.456;2023-04-24T05:31:11;9.70;99.90
51765;DHT22;37835;53.256;6.456;2023-04-24T05:33:37;9.80;99.90
51765;DHT22;37835;53.256;6.456;2023-04-24T05:36:03;9.80;99.90
51765;DHT22;37835;53.256;6.456;2023-04-24T05:38:30;9.80;99.90
51765;DHT22;37835;53.256;6.456;2023-04-24T05:40:56;9.80;99.90
51765;DHT22;37835;53.256;6.456;2023-04-24T05:43:21;10.80;99.90
51765;DHT22;37835;53.256;6.456;2023-04-24T05:45:47;9.80;99.90
51765;DHT22;37835;53.256;6.456;2023-04-24T05:48:13;9.80;99.90
51765;DHT22;37835;53.256;6.456;2023-04-24T05:50:38;9.80;99.90
51765;DHT22;37835;53.256;6.456;2023-04-24T05:53:04;9.70;99.90
51765;DHT22;37835;53.256;6.456;2023-04-24T05:55:32;9.70;99.90
51765;DHT22;37835;53.256;6.456;2023-04-24T05:57:58;9.70;99.90
51765;DHT22;37835;53.256;6.456;2023-04-24T06:00:24;9.70;99.90
51765;DHT22;37835;53.256;6.456;2023-04-24T06:02:50;10.40;99.90
51765;DHT22;37835;53.256;6.456;2023-04-24T06:05:16;9.70;99.90
51765;DHT22;37835;53.256;6.456;2023-04-24T06:07:42;9.70;99.90
51765;DHT22;37835;53.256;6.456;2023-04-24T06:10:08;10.10;99.90
51765;DHT22;37835;53.256;6.456;2023-04-24T06:12:34;9.70;99.90
51765;DHT22;37835;53.256;6.456;2023-04-24T06:15:00;9.70;99.90
51765;DHT22;37835;53.256;6.456;2023-04-24T06:17:26;9.70;99.90
51765;DHT22;37835;53.256;6.456;2023-04-24T06:19:52;9.70;99.90
51765;DHT22;37835;53.256;6.456;2023-04-24T06:22:17;9.70;99.90
51765;DHT22;37835;53.256;6.456;2023-04-24T06:24:43;9.60;99.90
51765;DHT22;37835;53.256;6.456;2023-04-24T06:27:08;9.60;99.90
51765;DHT22;37835;53.256;6.456;2023-04-24T06:29:34;9.70;99.90
51765;DHT22;37835;53.256;6.456;2023-04-24T06:32:00;9.70;99.90
51765;DHT22;37835;53.256;6.456;2023-04-24T06:34:27;9.70;99.90
51765;DHT22;37835;53.256;6.456;2023-04-24T06:36:56;9.70;99.90
51765;DHT22;37835;53.256;6.456;2023-04-24T06:39:22;9.70;99.90
51765;DHT22;37835;53.256;6.456;2023-04-24T06:41:47;9.70;99.90
51765;DHT22;37835;53.256;6.456;2023-04-24T06:44:13;9.70;99.90
51765;DHT22;37835;53.256;6.456;2023-04-24T06:46:40;9.60;99.90
51765;DHT22;37835;53.256;6.456;2023-04-24T06:49:06;9.70;99.90
51765;DHT22;37835;53.256;6.456;2023-04-24T06:51:32;9.70;99.90
51765;DHT22;37835;53.256;6.456;2023-04-24T06:53:58;9.70;99.90
51765;DHT22;37835;53.256;6.456;2023-04-24T06:56:24;9.70;99.90
51765;DHT22;37835;53.256;6.456;2023-04-24T06:58:50;9.70;99.90
51765;DHT22;37835;53.256;6.456;2023-04-24T07:01:16;9.70;99.90
51765;DHT22;37835;53.256;6.456;2023-04-24T07:03:42;9.80;99.90
51765;DHT22;37835;53.256;6.456;2023-04-24T07:06:08;9.70;99.90
51765;DHT22;37835;53.256;6.456;2023-04-24T07:08:35;9.70;99.90
51765;DHT22;37835;53.256;6.456;2023-04-24T07:11:01;9.70;99.90
51765;DHT22;37835;53.256;6.456;2023-04-24T07:13:27;9.70;99.90
51765;DHT22;37835;53.256;6.456;2023-04-24T07:15:53;9.70;99.90
51765;DHT22;37835;53.256;6.456;2023-04-24T07:18:20;9.70;99.90
51765;DHT22;37835;53.256;6.456;2023-04-24T07:20:46;8.70;99.90
51765;DHT22;37835;53.256;6.456;2023-04-24T07:23:12;9.60;99.90
51765;DHT22;37835;53.256;6.456;2023-04-24T07:25:37;9.70;99.90
51765;DHT22;37835;53.256;6.456;2023-04-24T07:28:03;9.60;99.90
51765;DHT22;37835;53.256;6.456;2023-04-24T07:30:30;9.60;99.90
51765;DHT22;37835;53.256;6.456;2023-04-24T07:32:55;9.60;99.90
51765;DHT22;37835;53.256;6.456;2023-04-24T07:35:21;9.60;99.90
51765;DHT22;37835;53.256;6.456;2023-04-24T07:37:47;9.60;99.90
51765;DHT22;37835;53.256;6.456;2023-04-24T07:40:13;9.50;99.90
51765;DHT22;37835;53.256;6.456;2023-04-24T07:42:39;9.50;99.90
51765;DHT22;37835;53.256;6.456;2023-04-24T07:45:05;9.40;99.90
51765;DHT22;37835;53.256;6.456;2023-04-24T07:47:32;9.40;99.90
51765;DHT22;37835;53.256;6.456;2023-04-24T07:49:58;9.40;99.90
51765;DHT22;37835;53.256;6.456;2023-04-24T07:52:24;9.40;99.90
51765;DHT22;37835;53.256;6.456;2023-04-24T07:54:50;9.30;99.90
51765;DHT22;37835;53.256;6.456;2023-04-24T07:57:16;9.30;99.90
51765;DHT22;37835;53.256;6.456;2023-04-24T07:59:42;9.30;99.90
51765;DHT22;37835;53.256;6.456;2023-04-24T08:02:07;9.30;99.90
51765;DHT22;37835;53.256;6.456;2023-04-24T08:04:33;9.30;99.90
51765;DHT22;37835;53.256;6.456;2023-04-24T08:06:59;9.20;99.90
51765;DHT22;37835;53.256;6.456;2023-04-24T08:09:24;9.20;99.90
51765;DHT22;37835;53.256;6.456;2023-04-24T08:11:50;9.20;99.90
51765;DHT22;37835;53.256;6.456;2023-04-24T08:14:16;9.20;99.90
51765;DHT22;37835;53.256;6.456;2023-04-24T08:16:41;9.20;99.90
51765;DHT22;37835;53.256;6.456;2023-04-24T08:19:07;9.20;99.90
51765;DHT22;37835;53.256;6.456;2023-04-24T08:21:33;9.10;99.90
51765;DHT22;37835;53.256;6.456;2023-04-24T08:23:59;9.10;99.90
51765;DHT22;37835;53.256;6.456;2023-04-24T08:26:24;9.10;99.90
51765;DHT22;37835;53.256;6.456;2023-04-24T08:28:50;9.00;99.90
51765;DHT22;37835;53.256;6.456;2023-04-24T08:31:16;9.00;99.90
51765;DHT22;37835;53.256;6.456;2023-04-24T08:33:44;9.50;99.90
51765;DHT22;37835;53.256;6.456;2023-04-24T08:36:11;9.00;99.90
51765;DHT22;37835;53.256;6.456;2023-04-24T08:38:36;9.00;99.90
51765;DHT22;37835;53.256;6.456;2023-04-24T08:41:02;9.00;99.90
51765;DHT22;37835;53.256;6.456;2023-04-24T08:43:29;9.00;99.90
51765;DHT22;37835;53.256;6.456;2023-04-24T08:45:57;8.90;99.90
51765;DHT22;37835;53.256;6.456;2023-04-24T08:48:26;8.90;99.90
51765;DHT22;37835;53.256;6.456;2023-04-24T08:50:52;8.80;99.90
51765;DHT22;37835;53.256;6.456;2023-04-24T08:53:18;8.80;99.90
51765;DHT22;37835;53.256;6.456;2023-04-24T08:55:47;8.60;99.90
51765;DHT22;37835;53.256;6.456;2023-04-24T08:58:14;8.70;99.90
51765;DHT22;37835;53.256;6.456;2023-04-24T09:00:40;8.70;99.90
51765;DHT22;37835;53.256;6.456;2023-04-24T09:03:15;8.60;99.90
51765;DHT22;37835;53.256;6.456;2023-04-24T09:05:43;8.60;99.90
51765;DHT22;37835;53.256;6.456;2023-04-24T09:08:13;8.60;99.90
51765;DHT22;37835;53.256;6.456;2023-04-24T09:10:39;8.70;99.90
51765;DHT22;37835;53.256;6.456;2023-04-24T09:13:05;8.80;99.90
51765;DHT22;37835;53.256;6.456;2023-04-24T09:15:32;8.70;99.90
51765;DHT22;37835;53.256;6.456;2023-04-24T09:17:58;8.70;99.90
51765;DHT22;37835;53.256;6.456;2023-04-24T09:20:23;8.80;99.90
51765;DHT22;37835;53.256;6.456;2023-04-24T09:22:53;8.80;99.90
51765;DHT22;37835;53.256;6.456;2023-04-24T09:25:20;8.90;99.90
51765;DHT22;37835;53.256;6.456;2023-04-24T09:27:46;8.80;99.90
51765;DHT22;37835;53.256;6.456;2023-04-24T09:30:13;8.90;99.90
51765;DHT22;37835;53.256;6.456;2023-04-24T09:32:39;8.90;99.90
51765;DHT22;37835;53.256;6.456;2023-04-24T09:35:09;8.50;99.90
51765;DHT22;37835;53.256;6.456;2023-04-24T09:37:40;8.90;99.90
51765;DHT22;37835;53.256;6.456;2023-04-24T09:40:16;8.90;99.90
51765;DHT22;37835;53.256;6.456;2023-04-24T09:42:54;8.10;99.90
51765;DHT22;37835;53.256;6.456;2023-04-24T09:45:20;8.80;99.90
51765;DHT22;37835;53.256;6.456;2023-04-24T09:47:46;8.80;99.90
51765;DHT22;37835;53.256;6.456;2023-04-24T09:50:17;8.90;99.90
51765;DHT22;37835;53.256;6.456;2023-04-24T09:52:44;8.90;99.90
51765;DHT22;37835;53.256;6.456;2023-04-24T09:55:11;9.00;99.90
51765;DHT22;37835;53.256;6.456;2023-04-24T09:57:47;9.00;99.90
51765;DHT22;37835;53.256;6.456;2023-04-24T10:00:13;9.10;99.90
51765;DHT22;37835;53.256;6.456;2023-04-24T10:02:49;9.20;99.90
51765;DHT22;37835;53.256;6.456;2023-04-24T10:05:15;9.30;99.90
51765;DHT22;37835;53.256;6.456;2023-04-24T10:07:40;9.40;99.90
51765;DHT22;37835;53.256;6.456;2023-04-24T10:10:06;9.40;99.90
51765;DHT22;37835;53.256;6.456;2023-04-24T10:12:35;9.50;99.90
51765;DHT22;37835;53.256;6.456;2023-04-24T10:15:02;10.10;99.90
51765;DHT22;37835;53.256;6.456;2023-04-24T10:17:29;9.60;99.90
51765;DHT22;37835;53.256;6.456;2023-04-24T10:19:55;9.70;99.90
51765;DHT22;37835;53.256;6.456;2023-04-24T10:22:21;9.70;99.90
51765;DHT22;37835;53.256;6.456;2023-04-24T10:24:49;9.70;99.90
51765;DHT22;37835;53.256;6.456;2023-04-24T10:27:16;9.70;99.90
51765;DHT22;37835;53.256;6.456;2023-04-24T10:29:43;9.80;99.90
51765;DHT22;37835;53.256;6.456;2023-04-24T10:32:10;9.80;99.90
51765;DHT22;37835;53.256;6.456;2023-04-24T10:34:36;9.80;99.90
51765;DHT22;37835;53.256;6.456;2023-04-24T10:37:02;9.70;99.90
51765;DHT22;37835;53.256;6.456;2023-04-24T10:39:28;9.70;99.90
51765;DHT22;37835;53.256;6.456;2023-04-24T10:41:56;9.70;99.90
51765;DHT22;37835;53.256;6.456;2023-04-24T10:44:23;9.70;99.90
51765;DHT22;37835;53.256;6.456;2023-04-24T10:46:55;9.70;99.90
51765;DHT22;37835;53.256;6.456;2023-04-24T10:49:31;9.70;99.90
51765;DHT22;37835;53.256;6.456;2023-04-24T10:52:01;9.70;99.90
51765;DHT22;37835;53.256;6.456;2023-04-24T10:54:41;9.70;99.90
51765;DHT22;37835;53.256;6.456;2023-04-24T10:57:26;9.80;99.90
51765;DHT22;37835;53.256;6.456;2023-04-24T11:00:18;9.80;99.90
51765;DHT22;37835;53.256;6.456;2023-04-24T11:02:46;9.80;99.90
51765;DHT22;37835;53.256;6.456;2023-04-24T11:05:16;10.70;99.90
51765;DHT22;37835;53.256;6.456;2023-04-24T11:08:14;9.90;99.90
51765;DHT22;37835;53.256;6.456;2023-04-24T11:10:45;9.80;99.90
51765;DHT22;37835;53.256;6.456;2023-04-24T11:13:14;9.80;99.90
51765;DHT22;37835;53.256;6.456;2023-04-24T11:15:43;9.80;99.90
51765;DHT22;37835;53.256;6.456;2023-04-24T11:18:14;9.70;99.90
51765;DHT22;37835;53.256;6.456;2023-04-24T11:20:44;9.70;99.90
51765;DHT22;37835;53.256;6.456;2023-04-24T11:23:12;9.70;99.90
51765;DHT22;37835;53.256;6.456;2023-04-24T11:25:38;9.60;99.90
51765;DHT22;37835;53.256;6.456;2023-04-24T11:28:05;9.60;99.90
51765;DHT22;37835;53.256;6.456;2023-04-24T11:30:32;9.60;99.90
51765;DHT22;37835;53.256;6.456;2023-04-24T11:33:07;9.60;99.90
51765;DHT22;37835;53.256;6.456;2023-04-24T11:35:39;9.60;99.90
51765;DHT22;37835;53.256;6.456;2023-04-24T11:38:06;9.90;99.90
51765;DHT22;37835;53.256;6.456;2023-04-24T11:40:32;9.50;99.90
51765;DHT22;37835;53.256;6.456;2023-04-24T11:42:59;9.50;99.90
51765;DHT22;37835;53.256;6.456;2023-04-24T11:45:27;9.10;99.90
51765;DHT22;37835;53.256;6.456;2023-04-24T11:47:53;9.50;99.90
51765;DHT22;37835;53.256;6.456;2023-04-24T11:50:22;9.50;99.90
51765;DHT22;37835;53.256;6.456;2023-04-24T11:52:49;9.50;99.90
51765;DHT22;37835;53.256;6.456;2023-04-24T11:57:48;9.50;99.90
51765;DHT22;37835;53.256;6.456;2023-04-24T12:00:39;9.50;99.90
51765;DHT22;37835;53.256;6.456;2023-04-24T12:05:31;9.40;99.90
51765;DHT22;37835;53.256;6.456;2023-04-24T12:07:57;9.40;99.90
51765;DHT22;37835;53.256;6.456;2023-04-24T12:10:24;9.40;99.90
51765;DHT22;37835;53.256;6.456;2023-04-24T12:12:50;9.40;99.90
51765;DHT22;37835;53.256;6.456;2023-04-24T12:15:18;9.40;99.90
51765;DHT22;37835;53.256;6.456;2023-04-24T12:17:44;9.40;99.90
51765;DHT22;37835;53.256;6.456;2023-04-24T12:20:11;9.40;99.90
51765;DHT22;37835;53.256;6.456;2023-04-24T12:22:57;9.40;99.90
51765;DHT22;37835;53.256;6.456;2023-04-24T12:25:33;9.40;99.90
51765;DHT22;37835;53.256;6.456;2023-04-24T12:30:29;9.50;99.90
51765;DHT22;37835;53.256;6.456;2023-04-24T12:32:57;9.40;99.90
51765;DHT22;37835;53.256;6.456;2023-04-24T12:35:25;9.60;99.90
51765;DHT22;37835;53.256;6.456;2023-04-24T12:37:51;10.20;99.90
51765;DHT22;37835;53.256;6.456;2023-04-24T12:40:18;9.60;99.90
51765;DHT22;37835;53.256;6.456;2023-04-24T12:42:48;9.70;99.90
51765;DHT22;37835;53.256;6.456;2023-04-24T12:45:16;9.60;99.90
51765;DHT22;37835;53.256;6.456;2023-04-24T12:47:42;9.60;99.90
51765;DHT22;37835;53.256;6.456;2023-04-24T12:50:13;9.60;99.90
51765;DHT22;37835;53.256;6.456;2023-04-24T12:52:39;9.60;99.90
51765;DHT22;37835;53.256;6.456;2023-04-24T12:55:06;9.60;99.90
51765;DHT22;37835;53.256;6.456;2023-04-24T12:57:34;9.50;99.90
51765;DHT22;37835;53.256;6.456;2023-04-24T13:00:00;9.50;99.90
51765;DHT22;37835;53.256;6.456;2023-04-24T13:02:27;9.40;99.90
51765;DHT22;37835;53.256;6.456;2023-04-24T13:04:54;10.90;99.90
51765;DHT22;37835;53.256;6.456;2023-04-24T13:07:20;9.30;99.90
51765;DHT22;37835;53.256;6.456;2023-04-24T13:09:49;9.30;99.90
51765;DHT22;37835;53.256;6.456;2023-04-24T13:12:14;9.20;99.90
51765;DHT22;37835;53.256;6.456;2023-04-24T13:14:41;9.20;99.90
51765;DHT22;37835;53.256;6.456;2023-04-24T13:17:06;8.40;99.90
51765;DHT22;37835;53.256;6.456;2023-04-24T13:19:37;9.10;99.90
51765;DHT22;37835;53.256;6.456;2023-04-24T13:22:03;9.10;99.90
51765;DHT22;37835;53.256;6.456;2023-04-24T13:24:30;9.10;99.90
51765;DHT22;37835;53.256;6.456;2023-04-24T13:26:56;9.10;99.90
51765;DHT22;37835;53.256;6.456;2023-04-24T13:29:22;9.30;99.90
51765;DHT22;37835;53.256;6.456;2023-04-24T13:31:50;9.20;99.90
51765;DHT22;37835;53.256;6.456;2023-04-24T13:34:16;9.30;99.90
51765;DHT22;37835;53.256;6.456;2023-04-24T13:36:42;9.30;99.90
51765;DHT22;37835;53.256;6.456;2023-04-24T13:41:33;9.30;99.90
51765;DHT22;37835;53.256;6.456;2023-04-24T13:43:59;9.40;99.90
51765;DHT22;37835;53.256;6.456;2023-04-24T13:46:25;9.40;99.90
51765;DHT22;37835;53.256;6.456;2023-04-24T13:48:51;9.40;99.90
51765;DHT22;37835;53.256;6.456;2023-04-24T13:51:17;9.40;99.90
51765;DHT22;37835;53.256;6.456;2023-04-24T13:53:43;9.30;99.90
51765;DHT22;37835;53.256;6.456;2023-04-24T13:56:09;9.70;99.90
51765;DHT22;37835;53.256;6.456;2023-04-24T13:58:35;9.20;99.90
51765;DHT22;37835;53.256;6.456;2023-04-24T14:01:04;9.10;99.90
51765;DHT22;37835;53.256;6.456;2023-04-24T14:03:29;9.00;99.90
51765;DHT22;37835;53.256;6.456;2023-04-24T14:05:55;9.40;99.90
51765;DHT22;37835;53.256;6.456;2023-04-24T14:08:21;8.70;99.90
51765;DHT22;37835;53.256;6.456;2023-04-24T14:10:46;8.90;99.90
51765;DHT22;37835;53.256;6.456;2023-04-24T14:13:12;8.80;99.90
51765;DHT22;37835;53.256;6.456;2023-04-24T14:15:38;8.90;99.90
51765;DHT22;37835;53.256;6.456;2023-04-24T14:18:04;8.90;99.90
51765;DHT22;37835;53.256;6.456;2023-04-24T14:20:30;8.90;99.90
51765;DHT22;37835;53.256;6.456;2023-04-24T14:22:56;8.90;99.90
51765;DHT22;37835;53.256;6.456;2023-04-24T14:25:24;8.90;99.90
51765;DHT22;37835;53.256;6.456;2023-04-24T14:27:50;8.90;99.90
51765;DHT22;37835;53.256;6.456;2023-04-24T14:30:16;8.80;99.90
51765;DHT22;37835;53.256;6.456;2023-04-24T14:32:41;8.90;99.90
51765;DHT22;37835;53.256;6.456;2023-04-24T14:35:07;8.90;99.90
51765;DHT22;37835;53.256;6.456;2023-04-24T14:37:33;8.80;99.90
51765;DHT22;37835;53.256;6.456;2023-04-24T14:39:59;8.80;99.90
51765;DHT22;37835;53.256;6.456;2023-04-24T14:42:24;8.80;99.90
51765;DHT22;37835;53.256;6.456;2023-04-24T14:44:50;8.90;99.90
51765;DHT22;37835;53.256;6.456;2023-04-24T14:47:16;8.90;99.90
51765;DHT22;37835;53.256;6.456;2023-04-24T14:49:47;8.90;99.90
51765;DHT22;37835;53.256;6.456;2023-04-24T14:54:39;9.00;99.90
51765;DHT22;37835;53.256;6.456;2023-04-24T14:57:05;8.90;99.90
51765;DHT22;37835;53.256;6.456;2023-04-24T14:59:31;8.90;99.90
51765;DHT22;37835;53.256;6.456;2023-04-24T15:01:57;8.90;99.90
51765;DHT22;37835;53.256;6.456;2023-04-24T15:04:26;8.80;99.90
51765;DHT22;37835;53.256;6.456;2023-04-24T15:06:52;8.90;99.90
51765;DHT22;37835;53.256;6.456;2023-04-24T15:09:20;8.90;99.90
51765;DHT22;37835;53.256;6.456;2023-04-24T15:11:46;8.90;99.90
51765;DHT22;37835;53.256;6.456;2023-04-24T15:14:12;8.90;99.90
51765;DHT22;37835;53.256;6.456;2023-04-24T15:16:37;9.00;99.90
51765;DHT22;37835;53.256;6.456;2023-04-24T15:19:03;8.90;99.90
51765;DHT22;37835;53.256;6.456;2023-04-24T15:21:28;9.00;99.90
51765;DHT22;37835;53.256;6.456;2023-04-24T15:23:54;9.00;99.90
51765;DHT22;37835;53.256;6.456;2023-04-24T15:26:20;9.00;99.90
51765;DHT22;37835;53.256;6.456;2023-04-24T15:28:46;9.00;99.90
51765;DHT22;37835;53.256;6.456;2023-04-24T15:31:12;9.90;99.90
51765;DHT22;37835;53.256;6.456;2023-04-24T15:33:38;9.00;99.90
51765;DHT22;37835;53.256;6.456;2023-04-24T15:36:04;9.10;99.90
51765;DHT22;37835;53.256;6.456;2023-04-24T15:38:30;9.10;99.90
51765;DHT22;37835;53.256;6.456;2023-04-24T15:40:55;9.00;99.90
51765;DHT22;37835;53.256;6.456;2023-04-24T15:43:21;9.10;99.90
51765;DHT22;37835;53.256;6.456;2023-04-24T15:45:49;9.00;99.90
51765;DHT22;37835;53.256;6.456;2023-04-24T15:48:15;8.90;99.90
51765;DHT22;37835;53.256;6.456;2023-04-24T15:50:41;8.80;99.90